Time;durP1;ratioP1;P1;durP2;ratioP2;P2;SDS_P1;SDS_P2;PMS_P1;PMS_P2;Temp;Humidity;BMP_temperature;BMP_pressure;BME280_temperature;BME280_humidity;BME280_pressure;Samples;Min_cycle;Max_cycle;Signal;HPM_P1;HPM_P2
2022/08/24 00:00:58;;;;;;;2.53;2.10;;;;;;;21.94;41.56;97317.72;5026277;27;20272;-74
2022/08/24 00:03:24;;;;;;;2.85;2.35;;;;;;;21.86;41.79;97314.75;5011011;27;20357;-74
2022/08/24 00:05:49;;;;;;;3.42;2.60;;;;;;;21.85;41.92;97315.09;5014507;28;20255;-74
2022/08/24 00:08:16;;;;;;;2.50;2.30;;;;;;;21.85;41.96;97318.50;5006760;27;20173;-74
2022/08/24 00:10:42;;;;;;;3.35;2.20;;;;;;;21.97;41.15;97311.75;5008301;27;20282;-74
2022/08/24 00:13:08;;;;;;;2.58;2.10;;;;;;;22.00;41.54;97322.53;5015997;27;20223;-74
2022/08/24 00:15:33;;;;;;;4.82;2.33;;;;;;;22.02;41.24;97322.22;5011874;27;20275;-74
2022/08/24 00:17:58;;;;;;;2.25;2.05;;;;;;;21.96;41.86;97320.84;5022731;27;20646;-75
2022/08/24 00:20:25;;;;;;;2.55;2.13;;;;;;;21.81;42.25;97320.22;5045409;27;20179;-74
2022/08/24 00:22:51;;;;;;;2.75;2.55;;;;;;;21.76;42.70;97320.38;5026465;27;20181;-74
2022/08/24 00:25:18;;;;;;;2.55;2.35;;;;;;;21.71;43.01;97315.22;5004902;27;20279;-74
2022/08/24 00:27:44;;;;;;;3.00;2.50;;;;;;;21.68;43.03;97315.88;5007535;27;20265;-75
2022/08/24 00:30:14;;;;;;;2.92;2.55;;;;;;;21.60;43.26;97316.66;5025652;27;20686;-74
2022/08/24 00:32:43;;;;;;;2.83;2.35;;;;;;;21.59;43.40;97318.53;5023917;27;20247;-74
2022/08/24 00:35:09;;;;;;;3.88;2.30;;;;;;;21.43;44.32;97320.81;5041066;27;20254;-74
2022/08/24 00:37:35;;;;;;;2.92;2.63;;;;;;;21.40;43.97;97321.44;5045996;27;20165;-74
2022/08/24 00:40:04;;;;;;;2.58;2.22;;;;;;;21.33;44.21;97321.94;4988922;28;20329;-74
2022/08/24 00:42:30;;;;;;;4.68;2.75;;;;;;;21.32;44.32;97320.38;5015947;27;20343;-75
2022/08/24 00:44:57;;;;;;;3.50;2.13;;;;;;;21.25;44.12;97327.19;5016705;27;20212;-74
2022/08/24 00:47:33;;;;;;;2.50;2.15;;;;;;;21.18;43.94;97327.69;5010890;27;20200;-74
2022/08/24 00:50:04;;;;;;;3.33;2.30;;;;;;;21.19;44.30;97333.75;5011809;28;20197;-74
2022/08/24 00:52:39;;;;;;;2.92;2.55;;;;;;;21.14;44.47;97329.38;5009815;27;20105;-74
2022/08/24 00:55:19;;;;;;;3.13;2.42;;;;;;;21.19;44.20;97326.56;5011512;27;20173;-75
2022/08/24 00:57:47;;;;;;;2.50;2.22;;;;;;;21.36;43.64;97323.16;5022672;28;20232;-74
2022/08/24 01:00:20;;;;;;;2.60;2.40;;;;;;;21.36;43.80;97322.41;5018900;27;20252;-74
2022/08/24 01:02:48;;;;;;;2.67;2.35;;;;;;;21.26;43.87;97323.47;5032319;27;20178;-74
2022/08/24 01:05:15;;;;;;;3.28;2.30;;;;;;;21.30;43.72;97327.03;5023131;28;20245;-74
2022/08/24 01:07:41;;;;;;;4.25;2.40;;;;;;;21.28;43.37;97324.72;4998305;27;20201;-74
2022/08/24 01:10:10;;;;;;;4.55;2.40;;;;;;;21.12;43.72;97316.44;4994204;27;20579;-74
2022/08/24 01:12:37;;;;;;;2.35;2.10;;;;;;;21.17;43.47;97322.69;5013366;28;20635;-74
2022/08/24 01:15:04;;;;;;;2.60;2.40;;;;;;;21.12;43.33;97323.63;5017023;27;20297;-75
2022/08/24 01:20:14;;;;;;;2.25;2.05;;;;;;;21.10;43.11;97313.31;5027915;27;20224;-74
2022/08/24 01:23:02;;;;;;;2.53;2.33;;;;;;;20.98;43.09;97321.09;5006010;27;20201;-74
2022/08/24 01:25:29;;;;;;;3.25;2.28;;;;;;;21.11;42.82;97314.91;5005605;28;20175;-74
2022/08/24 01:27:58;;;;;;;2.92;2.50;;;;;;;21.13;42.67;97312.72;4998302;27;20182;-74
2022/08/24 01:30:24;;;;;;;2.72;1.98;;;;;;;21.07;42.67;97311.28;5026649;27;20695;-74
2022/08/24 01:32:55;;;;;;;3.08;2.70;;;;;;;20.99;42.76;97317.38;5026339;27;20185;-74
2022/08/24 01:35:21;;;;;;;2.00;1.80;;;;;;;21.14;42.75;97314.25;5013519;28;20643;-74
2022/08/24 01:37:47;;;;;;;3.58;2.13;;;;;;;21.16;42.93;97321.13;4992626;27;20212;-74
2022/08/24 01:40:12;;;;;;;3.22;2.28;;;;;;;21.13;43.18;97318.00;5006147;28;20178;-74
2022/08/24 01:42:38;;;;;;;3.63;2.17;;;;;;;21.08;43.25;97323.44;5012747;28;20140;-74
2022/08/24 01:45:05;;;;;;;3.88;2.00;;;;;;;21.05;43.39;97324.06;4978478;28;20192;-75
2022/08/24 01:47:30;;;;;;;2.50;2.30;;;;;;;21.02;43.73;97315.97;4994190;27;20166;-74
2022/08/24 01:49:56;;;;;;;2.45;2.22;;;;;;;20.98;43.60;97315.81;5016191;27;20138;-74
2022/08/24 01:52:24;;;;;;;4.03;2.60;;;;;;;20.93;43.79;97324.66;5008526;27;20197;-74
2022/08/24 01:54:49;;;;;;;2.40;2.20;;;;;;;20.92;43.67;97320.47;5026981;27;20629;-74
2022/08/24 01:57:15;;;;;;;2.45;2.25;;;;;;;20.88;43.76;97324.81;5009037;27;20174;-74
2022/08/24 01:59:41;;;;;;;2.47;2.13;;;;;;;20.86;44.12;97331.50;5025874;27;20338;-74
2022/08/24 02:02:20;;;;;;;2.72;2.40;;;;;;;20.75;44.54;97323.84;5001992;27;20207;-74
2022/08/24 02:04:45;;;;;;;4.25;2.42;;;;;;;20.75;44.31;97315.91;5007957;28;20642;-74
2022/08/24 02:07:12;;;;;;;2.80;2.55;;;;;;;20.74;44.28;97324.16;5006580;28;20170;-75
2022/08/24 02:09:37;;;;;;;2.85;2.20;;;;;;;20.72;44.64;97328.97;5023572;28;20237;-74
2022/08/24 02:12:04;;;;;;;2.17;1.98;;;;;;;20.67;44.60;97332.53;4998417;28;20635;-75
2022/08/24 02:14:30;;;;;;;2.40;2.20;;;;;;;20.65;44.40;97332.06;5008880;28;20161;-74
2022/08/24 02:16:57;;;;;;;2.67;2.13;;;;;;;20.64;44.30;97337.66;5006302;28;20178;-74
2022/08/24 02:19:23;;;;;;;2.45;2.20;;;;;;;20.64;43.91;97330.50;4978869;28;20279;-74
2022/08/24 02:21:48;;;;;;;2.92;2.40;;;;;;;20.61;44.27;97332.94;5026822;28;20730;-73
2022/08/24 02:24:15;;;;;;;2.55;2.33;;;;;;;20.56;44.54;97333.84;5043591;28;20192;-74
2022/08/24 02:26:40;;;;;;;2.08;1.90;;;;;;;20.52;44.72;97323.09;5015953;28;20178;-74
2022/08/24 02:29:06;;;;;;;3.13;2.38;;;;;;;20.54;44.69;97331.50;5008200;28;20174;-74
2022/08/24 02:31:32;;;;;;;3.88;2.30;;;;;;;20.54;44.83;97336.78;5006309;28;20704;-74
2022/08/24 02:33:57;;;;;;;2.20;2.00;;;;;;;20.52;44.81;97343.50;5025641;28;20676;-75
2022/08/24 02:36:23;;;;;;;2.80;2.22;;;;;;;20.53;44.58;97339.78;5025990;28;20188;-74
2022/08/24 02:38:48;;;;;;;3.08;2.50;;;;;;;20.53;44.31;97345.06;5027360;27;20672;-74
2022/08/24 02:41:14;;;;;;;2.55;2.35;;;;;;;20.51;44.05;97336.63;5045123;27;20255;-74
2022/08/24 02:43:39;;;;;;;2.72;2.45;;;;;;;20.48;44.21;97339.91;5004560;28;20197;-74
2022/08/24 02:46:05;;;;;;;2.58;2.20;;;;;;;20.46;44.09;97339.41;4989559;28;20279;-74
2022/08/24 02:48:30;;;;;;;2.53;2.22;;;;;;;20.46;43.95;97337.56;5005298;28;20200;-74
2022/08/24 02:50:56;;;;;;;2.90;2.63;;;;;;;20.39;44.29;97338.00;5011211;27;20154;-74
2022/08/24 02:53:21;;;;;;;3.28;2.47;;;;;;;20.26;45.29;97344.13;5009402;28;20300;-74
2022/08/24 02:55:47;;;;;;;3.72;2.60;;;;;;;20.19;46.06;97343.78;5011008;27;20158;-74
2022/08/24 02:58:15;;;;;;;4.00;2.60;;;;;;;20.10;46.12;97349.03;5024303;28;20275;-74
2022/08/24 03:00:45;;;;;;;2.63;2.10;;;;;;;20.10;45.88;97342.94;5034236;27;20276;-74
2022/08/24 03:03:10;;;;;;;4.57;2.83;;;;;;;20.12;46.24;97338.94;5012620;27;20119;-74
2022/08/24 03:05:36;;;;;;;3.15;2.85;;;;;;;20.07;46.31;97346.22;5010821;27;20709;-74
2022/08/24 03:08:02;;;;;;;2.92;2.67;;;;;;;20.06;45.70;97340.13;4995437;28;20702;-74
2022/08/24 03:10:28;;;;;;;2.42;2.22;;;;;;;20.05;45.91;97338.59;5008075;27;20664;-74
2022/08/24 03:12:53;;;;;;;3.15;2.33;;;;;;;20.05;45.71;97337.78;5006185;28;20204;-74
2022/08/24 03:15:23;;;;;;;2.63;2.30;;;;;;;20.06;45.33;97331.44;5009259;28;20651;-74
2022/08/24 03:17:49;;;;;;;3.15;2.85;;;;;;;20.08;45.09;97335.31;5028670;27;20291;-74
2022/08/24 03:20:19;;;;;;;2.63;2.20;;;;;;;20.15;44.41;97332.25;5007904;27;20239;-74
2022/08/24 03:22:45;;;;;;;2.70;2.50;;;;;;;20.20;44.73;97324.19;5024838;27;20241;-75
2022/08/24 03:25:11;;;;;;;2.28;1.95;;;;;;;20.18;44.86;97336.94;5039515;27;20239;-74
2022/08/24 03:27:36;;;;;;;2.97;2.25;;;;;;;20.19;44.97;97339.28;4997631;27;20243;-74
2022/08/24 03:30:04;;;;;;;3.00;2.08;;;;;;;20.14;45.17;97336.00;5012054;27;20695;-74
2022/08/24 03:32:30;;;;;;;3.13;2.03;;;;;;;20.11;44.83;97331.31;5022379;28;20375;-74
2022/08/24 03:34:56;;;;;;;2.92;2.40;;;;;;;20.10;45.27;97329.72;5023093;27;20274;-74
2022/08/24 03:37:21;;;;;;;3.58;2.58;;;;;;;20.05;45.61;97327.22;5003987;28;20696;-75
2022/08/24 03:39:48;;;;;;;3.22;2.63;;;;;;;20.01;45.97;97327.03;5028152;27;20221;-74
2022/08/24 03:42:14;;;;;;;2.70;2.50;;;;;;;19.94;46.36;97327.47;4989466;28;20265;-74
2022/08/24 03:44:40;;;;;;;3.08;2.78;;;;;;;19.83;47.13;97332.22;4994094;28;20287;-74
2022/08/24 03:47:07;;;;;;;4.00;3.20;;;;;;;19.76;47.44;97331.84;5006384;27;20273;-74
2022/08/24 03:49:32;;;;;;;2.72;2.53;;;;;;;19.75;47.58;97326.88;5018884;28;20283;-74
2022/08/24 03:51:58;;;;;;;3.22;2.65;;;;;;;19.66;47.45;97329.44;5024755;28;20184;-73
2022/08/24 03:54:24;;;;;;;3.40;2.90;;;;;;;19.65;47.84;97325.22;5020900;28;20201;-74
2022/08/24 03:56:49;;;;;;;3.13;2.83;;;;;;;19.64;47.27;97328.94;5007196;28;20706;-75
2022/08/24 03:59:14;;;;;;;3.80;2.50;;;;;;;19.65;47.81;97326.00;4991102;28;20678;-75
2022/08/24 04:01:40;;;;;;;2.75;2.55;;;;;;;19.62;47.46;97326.59;5024033;27;20161;-74
2022/08/24 04:04:05;;;;;;;2.60;2.40;;;;;;;19.63;47.09;97325.50;5037750;27;20268;-74
2022/08/24 04:06:31;;;;;;;3.50;2.35;;;;;;;19.64;47.34;97332.34;5009030;28;20634;-74
2022/08/24 04:08:56;;;;;;;3.50;2.88;;;;;;;19.65;47.58;97326.00;5014674;27;20281;-74
2022/08/24 04:11:24;;;;;;;3.08;2.38;;;;;;;19.67;47.28;97330.19;5007903;27;20035;-74
2022/08/24 04:13:51;;;;;;;2.17;1.92;;;;;;;19.70;47.24;97332.25;5027327;27;20280;-74
2022/08/24 04:16:19;;;;;;;3.35;2.35;;;;;;;19.71;47.60;97325.91;5021243;28;20410;-74
2022/08/24 04:18:45;;;;;;;2.88;2.67;;;;;;;19.70;46.99;97329.59;5017479;27;20277;-74
2022/08/24 04:21:18;;;;;;;2.47;2.20;;;;;;;19.64;47.17;97326.31;4996253;27;20878;-74
2022/08/24 04:23:43;;;;;;;2.95;2.65;;;;;;;19.76;46.49;97331.84;5027425;27;20711;-73
2022/08/24 04:26:09;;;;;;;3.08;2.78;;;;;;;19.83;46.71;97332.22;5011186;27;20277;-74
2022/08/24 04:28:34;;;;;;;2.97;2.60;;;;;;;19.82;46.14;97333.28;5016839;27;20649;-74
2022/08/24 04:31:04;;;;;;;3.42;1.92;;;;;;;19.71;46.32;97339.09;4991464;28;20227;-74
2022/08/24 04:33:30;;;;;;;4.07;2.28;;;;;;;19.69;46.68;97347.31;5003017;27;20214;-75
2022/08/24 04:35:56;;;;;;;4.13;2.70;;;;;;;19.56;47.91;97348.91;5007995;28;20159;-74
2022/08/24 04:38:21;;;;;;;4.65;2.90;;;;;;;19.30;48.98;97351.34;5008691;27;20190;-74
2022/08/24 04:40:47;;;;;;;3.30;3.00;;;;;;;19.25;48.98;97346.94;5010636;27;20296;-74
2022/08/24 04:43:14;;;;;;;2.90;2.70;;;;;;;19.39;48.04;97356.69;5012465;28;20638;-73
2022/08/24 04:45:42;;;;;;;3.67;2.95;;;;;;;19.34;48.13;97352.28;5005516;27;20700;-74
2022/08/24 04:48:08;;;;;;;4.63;2.65;;;;;;;19.36;47.84;97344.84;5019001;27;20241;-74
2022/08/24 04:50:35;;;;;;;3.10;2.63;;;;;;;19.31;48.04;97358.16;5026756;27;20183;-74
2022/08/24 04:53:04;;;;;;;2.90;2.63;;;;;;;19.47;47.74;97353.34;5020802;27;20615;-74
2022/08/24 04:55:30;;;;;;;2.90;2.70;;;;;;;19.58;47.52;97359.19;5017058;27;20591;-74
2022/08/24 04:57:55;;;;;;;6.28;3.55;;;;;;;19.66;47.63;97353.19;5028216;27;20104;-74
2022/08/24 05:00:20;;;;;;;3.97;2.45;;;;;;;19.73;47.76;97360.72;5001510;27;20187;-74
2022/08/24 05:02:46;;;;;;;5.13;2.92;;;;;;;19.74;47.42;97362.25;5010503;27;20330;-74
2022/08/24 05:05:11;;;;;;;3.70;2.72;;;;;;;19.76;47.53;97362.78;5007387;28;20279;-74
2022/08/24 05:07:37;;;;;;;3.33;2.60;;;;;;;19.77;47.29;97359.06;5010488;27;20198;-74
2022/08/24 05:10:03;;;;;;;3.17;2.83;;;;;;;19.80;47.76;97369.03;5017742;27;20360;-74
2022/08/24 05:12:29;;;;;;;2.50;2.10;;;;;;;19.85;47.56;97370.78;4988850;28;20434;-74
2022/08/24 05:14:54;;;;;;;2.65;2.42;;;;;;;19.89;47.80;97366.44;5005971;28;20318;-74
2022/08/24 05:17:20;;;;;;;2.30;2.10;;;;;;;19.98;47.53;97377.84;5016711;28;20155;-74
2022/08/24 05:19:45;;;;;;;6.32;2.55;;;;;;;20.04;47.53;97374.00;4989263;27;20246;-74
2022/08/24 05:22:11;;;;;;;2.88;2.20;;;;;;;20.08;47.47;97371.56;5025363;27;20607;-74
2022/08/24 05:24:36;;;;;;;2.55;2.35;;;;;;;20.14;47.54;97370.34;5017811;27;20192;-74
2022/08/24 05:27:02;;;;;;;3.13;2.35;;;;;;;20.24;47.37;97379.88;4990995;28;20159;-74
2022/08/24 05:29:28;;;;;;;2.55;2.35;;;;;;;20.27;47.11;97382.72;5027370;27;20274;-74
2022/08/24 05:31:54;;;;;;;2.75;2.55;;;;;;;20.33;46.99;97380.72;5025886;27;20270;-74
2022/08/24 05:34:19;;;;;;;3.13;2.67;;;;;;;20.31;47.27;97373.09;4990181;27;20326;-74
2022/08/24 05:36:44;;;;;;;4.00;2.88;;;;;;;20.30;48.09;97376.81;5008718;27;20844;-74
2022/08/24 05:39:12;;;;;;;2.85;2.60;;;;;;;20.26;48.17;97369.81;5022624;27;20707;-74
2022/08/24 05:41:39;;;;;;;2.63;2.42;;;;;;;20.31;48.43;97378.38;5021265;27;20273;-74
2022/08/24 05:44:05;;;;;;;3.35;2.95;;;;;;;20.39;48.23;97376.88;5022975;27;20224;-74
2022/08/24 05:46:30;;;;;;;2.88;2.60;;;;;;;20.46;47.91;97384.38;5000064;27;20272;-73
2022/08/24 05:48:56;;;;;;;2.92;2.70;;;;;;;20.53;47.86;97387.38;5013673;27;20265;-74
2022/08/24 05:51:22;;;;;;;2.92;2.60;;;;;;;20.58;47.35;97381.97;5011298;27;20182;-74
2022/08/24 05:53:47;;;;;;;3.95;2.60;;;;;;;20.64;46.42;97387.91;5006444;27;20288;-74
2022/08/24 05:56:15;;;;;;;2.72;2.53;;;;;;;20.65;46.43;97382.31;5011278;27;20328;-74
2022/08/24 05:58:41;;;;;;;2.90;2.70;;;;;;;20.73;46.15;97381.59;5016633;27;20251;-74
2022/08/24 06:01:07;;;;;;;4.25;3.15;;;;;;;20.75;45.90;97382.06;5005122;27;20299;-74
2022/08/24 06:03:33;;;;;;;2.30;2.10;;;;;;;20.85;45.34;97390.81;4991832;27;20178;-74
2022/08/24 06:06:01;;;;;;;3.78;3.15;;;;;;;20.85;46.88;97396.09;4992597;28;20248;-74
2022/08/24 06:08:26;;;;;;;4.63;2.67;;;;;;;20.97;47.01;97392.88;5022337;27;20212;-74
2022/08/24 06:10:52;;;;;;;3.40;2.90;;;;;;;21.06;46.98;97393.66;5014924;27;20183;-74
2022/08/24 06:13:17;;;;;;;3.72;3.40;;;;;;;21.17;48.03;97408.19;4995696;28;20084;-75
2022/08/24 06:15:43;;;;;;;4.53;3.03;;;;;;;21.21;48.31;97401.19;5005894;28;20102;-75
2022/08/24 06:18:08;;;;;;;4.32;3.53;;;;;;;21.28;49.52;97403.38;5006650;27;20658;-74
2022/08/24 06:20:39;;;;;;;3.85;3.05;;;;;;;21.22;49.19;97409.94;4995849;28;20564;-75
2022/08/24 06:23:05;;;;;;;4.30;3.17;;;;;;;21.44;47.54;97409.81;5019357;27;20148;-75
2022/08/24 06:28:14;;;;;;;3.65;2.72;;;;;;;21.80;46.37;97403.50;5043210;27;20187;-75
2022/08/24 06:30:41;;;;;;;3.17;2.70;;;;;;;21.95;45.94;97409.41;5051287;27;20282;-75
2022/08/24 06:33:08;;;;;;;3.85;3.05;;;;;;;22.06;44.14;97406.13;5070437;27;20277;-75
2022/08/24 06:35:33;;;;;;;3.33;2.90;;;;;;;22.20;44.03;97411.25;5051327;27;20198;-75
2022/08/24 06:37:59;;;;;;;3.88;3.13;;;;;;;22.36;43.38;97408.94;5034533;27;20283;-74
2022/08/24 06:40:25;;;;;;;3.72;3.20;;;;;;;22.56;43.21;97410.13;5069475;27;20188;-75
2022/08/24 06:42:50;;;;;;;3.75;2.78;;;;;;;22.70;43.39;97403.84;5017705;27;20211;-74
2022/08/24 06:45:16;;;;;;;3.50;3.10;;;;;;;22.88;43.89;97407.22;5030882;27;20719;-75
2022/08/24 06:47:42;;;;;;;5.80;2.83;;;;;;;23.07;43.04;97410.28;5030614;27;20695;-75
2022/08/24 06:50:07;;;;;;;3.45;3.03;;;;;;;23.28;42.81;97412.97;5030392;27;20301;-74
2022/08/24 06:52:34;;;;;;;2.97;2.78;;;;;;;23.44;42.47;97410.53;5030779;27;20350;-75
2022/08/24 06:55:00;;;;;;;4.93;3.25;;;;;;;23.60;42.05;97415.28;5030405;27;20299;-74
2022/08/24 06:57:25;;;;;;;3.80;2.70;;;;;;;23.65;42.25;97413.22;5013830;27;20234;-74
2022/08/24 06:59:51;;;;;;;3.42;3.05;;;;;;;23.72;41.46;97410.81;4996690;27;20274;-74
2022/08/24 07:02:18;;;;;;;4.25;2.90;;;;;;;23.81;40.92;97404.66;5013774;27;20208;-75
2022/08/24 07:04:44;;;;;;;3.30;3.00;;;;;;;23.92;40.39;97411.94;5013866;27;20157;-74
2022/08/24 07:07:10;;;;;;;4.57;3.35;;;;;;;24.10;39.78;97417.88;4996784;27;20701;-74
2022/08/24 07:09:39;;;;;;;3.63;3.30;;;;;;;24.17;39.34;97414.69;5026182;27;20210;-75
2022/08/24 07:12:07;;;;;;;3.80;2.95;;;;;;;24.31;39.77;97417.06;5048495;27;20255;-74
2022/08/24 07:14:32;;;;;;;3.95;3.10;;;;;;;24.49;39.78;97417.66;5029623;27;20278;-75
2022/08/24 07:16:58;;;;;;;3.05;2.83;;;;;;;24.61;39.70;97415.06;4996024;27;20322;-74
2022/08/24 07:19:24;;;;;;;3.25;3.00;;;;;;;24.82;39.19;97417.63;5029173;27;20185;-75
2022/08/24 07:21:49;;;;;;;3.25;2.95;;;;;;;25.02;38.83;97418.63;5029590;27;20196;-74
2022/08/24 07:24:15;;;;;;;3.53;2.78;;;;;;;25.18;38.23;97412.66;5012578;27;20187;-75
2022/08/24 07:26:41;;;;;;;4.03;2.67;;;;;;;25.37;36.99;97425.41;5012674;27;20128;-74
2022/08/24 07:29:14;;;;;;;7.03;3.58;;;;;;;25.52;37.76;97430.06;5017287;27;20219;-74
2022/08/24 07:31:40;;;;;;;3.55;2.67;;;;;;;25.66;37.40;97427.03;5025691;27;20072;-74
2022/08/24 07:34:08;;;;;;;5.05;2.95;;;;;;;25.89;36.56;97421.97;5033440;27;20798;-74
2022/08/24 07:36:34;;;;;;;6.18;2.95;;;;;;;26.07;36.93;97435.06;4996312;27;20150;-75
2022/08/24 07:39:00;;;;;;;2.83;2.53;;;;;;;26.29;36.35;97431.06;5029067;27;20161;-75
2022/08/24 07:41:26;;;;;;;3.33;3.03;;;;;;;26.45;36.50;97434.53;5012886;27;20180;-74
2022/08/24 07:43:53;;;;;;;5.40;2.90;;;;;;;26.78;36.74;97428.13;5029307;27;20647;-75
2022/08/24 07:46:18;;;;;;;3.80;2.90;;;;;;;27.00;36.03;97432.09;5009289;28;20231;-74
2022/08/24 07:48:44;;;;;;;5.57;3.05;;;;;;;26.97;36.10;97437.34;5009057;28;20369;-75
2022/08/24 07:51:14;;;;;;;3.22;2.78;;;;;;;27.20;35.50;97442.88;5027909;28;20209;-74
2022/08/24 07:53:40;;;;;;;3.10;2.90;;;;;;;27.55;34.99;97439.44;5009255;28;20193;-74
2022/08/24 07:56:06;;;;;;;3.17;2.88;;;;;;;27.82;34.83;97435.81;5009299;28;20238;-74
2022/08/24 07:58:31;;;;;;;2.97;2.65;;;;;;;27.95;34.40;97433.03;4992698;28;20171;-74
2022/08/24 08:00:58;;;;;;;3.17;2.83;;;;;;;28.07;34.80;97438.25;4992035;28;20205;-75
2022/08/24 08:03:25;;;;;;;3.38;3.05;;;;;;;28.30;34.32;97440.19;4976232;28;20608;-75
2022/08/24 08:05:58;;;;;;;5.18;2.90;;;;;;;28.17;34.43;97444.91;4992456;28;20124;-74
2022/08/24 08:08:25;;;;;;;4.43;3.00;;;;;;;28.46;34.37;97448.13;5009043;28;20278;-74
2022/08/24 08:10:50;;;;;;;3.08;2.88;;;;;;;29.03;33.46;97442.97;4992055;28;20365;-74
2022/08/24 08:13:17;;;;;;;3.50;2.80;;;;;;;29.27;33.01;97445.31;5009002;28;20458;-75
2022/08/24 08:15:43;;;;;;;3.65;2.47;;;;;;;29.73;32.57;97449.72;4992494;28;20284;-74
2022/08/24 08:18:09;;;;;;;2.95;2.40;;;;;;;29.79;32.35;97442.94;4992290;28;20215;-75
2022/08/24 08:20:36;;;;;;;3.22;2.92;;;;;;;30.09;32.31;97447.50;4991753;28;20146;-75
2022/08/24 08:25:51;;;;;;;4.22;3.05;;;;;;;30.08;31.85;97454.03;5008326;28;20660;-74
2022/08/24 08:28:17;;;;;;;3.60;2.83;;;;;;;30.48;31.84;97449.84;5008959;28;20216;-74
2022/08/24 08:30:43;;;;;;;3.55;3.22;;;;;;;30.75;30.83;97453.19;5026873;28;20270;-75
2022/08/24 08:33:09;;;;;;;2.97;2.78;;;;;;;31.05;30.46;97455.00;5008539;28;20249;-75
2022/08/24 08:35:36;;;;;;;3.00;2.67;;;;;;;30.92;31.00;97442.94;4991879;28;20377;-75
2022/08/24 08:38:01;;;;;;;3.83;2.28;;;;;;;31.01;29.65;97453.41;4991812;28;20213;-75
2022/08/24 08:40:44;;;;;;;2.70;2.50;;;;;;;31.00;29.87;97447.28;5024951;28;20246;-75
2022/08/24 08:43:31;;;;;;;2.90;2.60;;;;;;;31.04;28.27;97445.38;5008250;28;20204;-75
2022/08/24 08:46:24;;;;;;;2.78;2.50;;;;;;;31.35;28.74;97438.66;4991566;28;20166;-75
2022/08/24 08:48:55;;;;;;;3.95;2.40;;;;;;;31.63;27.66;97445.34;5007277;28;20278;-75
2022/08/24 08:51:40;;;;;;;2.60;2.20;;;;;;;31.76;26.86;97437.75;5007925;28;20197;-75
2022/08/24 08:54:38;;;;;;;2.30;2.10;;;;;;;32.31;26.56;97436.03;5026778;28;20181;-75
2022/08/24 08:57:25;;;;;;;1.90;1.80;;;;;;;32.57;26.10;97441.03;4991513;28;20096;-75
2022/08/24 09:00:24;;;;;;;2.35;2.15;;;;;;;32.65;26.33;97437.22;5024489;28;20162;-75
2022/08/24 09:02:56;;;;;;;3.92;2.45;;;;;;;33.06;26.50;97429.88;5007970;28;20201;-75
2022/08/24 09:05:58;;;;;;;2.47;2.20;;;;;;;33.43;25.94;97426.00;5007781;28;20257;-75
2022/08/24 09:08:27;;;;;;;3.30;2.17;;;;;;;33.28;25.65;97426.06;5008135;28;20197;-74
2022/08/24 09:11:21;;;;;;;2.78;2.25;;;;;;;33.33;25.59;97431.06;5007397;28;20657;-75
2022/08/24 09:14:06;;;;;;;3.22;2.30;;;;;;;33.77;25.28;97431.69;5026600;28;20275;-75
2022/08/24 09:16:42;;;;;;;2.53;2.33;;;;;;;34.07;23.88;97428.47;5008017;28;20155;-75
2022/08/24 09:19:19;;;;;;;2.40;2.15;;;;;;;34.06;24.07;97424.22;5007555;28;20303;-75
2022/08/24 09:22:08;;;;;;;2.65;2.03;;;;;;;33.83;23.68;97426.66;5026009;28;20338;-74
2022/08/24 09:24:46;;;;;;;3.58;2.20;;;;;;;33.65;24.14;97435.56;5026294;28;20209;-75
2022/08/24 09:27:42;;;;;;;2.58;2.28;;;;;;;33.81;23.00;97426.28;5007695;28;20615;-75
2022/08/24 09:30:10;;;;;;;2.78;1.95;;;;;;;33.91;23.58;97430.88;4990835;28;20351;-75
2022/08/24 09:32:45;;;;;;;2.45;1.95;;;;;;;34.14;22.83;97433.06;5026278;28;20742;-75
2022/08/24 09:35:17;;;;;;;2.90;1.90;;;;;;;34.12;23.24;97421.91;5026016;28;20189;-75
2022/08/24 09:38:06;;;;;;;3.40;2.10;;;;;;;33.85;22.80;97425.09;5007703;28;20229;-75
2022/08/24 09:40:55;;;;;;;2.80;1.92;;;;;;;33.65;23.14;97424.75;5009605;27;20220;-75
2022/08/24 09:43:40;;;;;;;2.28;2.08;;;;;;;34.01;23.01;97430.03;5010513;27;20200;-74
2022/08/24 09:46:09;;;;;;;2.45;2.20;;;;;;;34.38;22.59;97427.91;5026834;27;20711;-75
2022/08/24 09:48:37;;;;;;;1.90;1.80;;;;;;;34.83;21.30;97428.00;5025010;28;20197;-75
2022/08/24 09:51:03;;;;;;;2.72;2.00;;;;;;;34.94;21.49;97436.03;5023738;28;20274;-75
2022/08/24 09:53:46;;;;;;;2.20;2.00;;;;;;;34.92;20.79;97430.25;5025615;28;20201;-74
2022/08/24 09:56:24;;;;;;;2.45;2.00;;;;;;;35.22;21.53;97430.38;5023503;28;20171;-74
2022/08/24 09:58:56;;;;;;;3.05;2.13;;;;;;;35.57;21.31;97420.31;5027213;27;20263;-75
2022/08/24 10:01:56;;;;;;;2.22;1.98;;;;;;;35.83;20.65;97423.50;5030081;27;20638;-75
2022/08/24 10:04:39;;;;;;;2.40;2.20;;;;;;;35.96;20.98;97424.50;5045914;27;20185;-75
2022/08/24 10:07:37;;;;;;;3.40;2.90;;;;;;;36.12;19.43;97428.56;5010534;27;20171;-75
2022/08/24 10:10:09;;;;;;;3.65;2.25;;;;;;;36.12;20.39;97420.44;5010035;27;20285;-74
2022/08/24 10:13:10;;;;;;;2.28;2.13;;;;;;;36.30;20.04;97422.94;5010626;27;20196;-74
2022/08/24 10:15:44;;;;;;;2.53;2.33;;;;;;;35.53;20.50;97424.25;5045778;27;20353;-75
2022/08/24 10:18:38;;;;;;;2.72;2.45;;;;;;;35.23;20.91;97412.97;5027175;27;20643;-74
2022/08/24 10:21:34;;;;;;;2.42;2.22;;;;;;;35.20;20.98;97426.50;5027128;28;20185;-74
2022/08/24 10:24:06;;;;;;;2.33;2.13;;;;;;;35.19;21.16;97423.03;5045616;28;20294;-75
2022/08/24 10:26:46;;;;;;;3.60;2.30;;;;;;;35.14;21.12;97426.16;4993343;28;20691;-75
2022/08/24 10:29:29;;;;;;;3.70;1.95;;;;;;;35.07;20.07;97416.19;5045319;28;20216;-75
2022/08/24 10:32:13;;;;;;;4.10;2.25;;;;;;;35.20;20.46;97424.56;5045564;28;20188;-75
2022/08/24 10:35:01;;;;;;;4.18;2.40;;;;;;;35.34;19.85;97417.50;5045592;28;20283;-75
2022/08/24 10:41:19;;;;;;;2.25;2.05;;;;;;;35.53;20.38;97408.75;4945199;28;20654;-74
2022/08/24 10:43:52;;;;;;;2.15;2.05;;;;;;;35.51;19.81;97403.00;4961821;28;20726;-75
2022/08/24 10:46:38;;;;;;;2.45;2.15;;;;;;;35.37;19.65;97405.84;4906479;28;20877;-75
2022/08/24 10:49:06;;;;;;;3.53;2.70;;;;;;;35.32;19.79;97409.00;4889679;28;20217;-75
2022/08/24 10:51:59;;;;;;;2.60;2.15;;;;;;;35.91;19.54;97400.56;4922467;28;20660;-76
2022/08/24 10:54:25;;;;;;;2.40;2.20;;;;;;;36.62;18.97;97400.72;4906361;28;20281;-74
2022/08/24 10:56:54;;;;;;;2.35;2.20;;;;;;;36.83;18.22;97390.72;4890131;28;20293;-75
2022/08/24 10:59:24;;;;;;;2.95;2.40;;;;;;;37.22;18.37;97394.69;4910931;28;20181;-74
2022/08/24 11:02:08;;;;;;;3.75;2.40;;;;;;;37.44;18.29;97386.88;4944903;28;20213;-74
2022/08/24 11:04:34;;;;;;;;;;;;;;;37.36;18.85;97402.56;4945685;28;20255;-75
2022/08/24 11:07:05;;;;;;;2.50;2.30;;;;;;;37.38;18.10;97400.19;4961579;28;20599;-75
2022/08/24 11:09:42;;;;;;;3.13;2.67;;;;;;;37.01;18.31;97396.56;4961194;28;20286;-75
2022/08/24 11:12:23;;;;;;;2.72;2.50;;;;;;;37.07;18.04;97386.78;5012455;27;20169;-75
2022/08/24 11:14:49;;;;;;;2.90;2.50;;;;;;;37.36;17.44;97390.91;5033553;27;20327;-75
2022/08/24 11:17:18;;;;;;;2.58;2.38;;;;;;;37.30;17.81;97394.13;5033686;27;20617;-75
2022/08/24 11:19:43;;;;;;;2.70;2.60;;;;;;;37.72;17.43;97382.84;5033467;27;20670;-74
2022/08/24 11:22:35;;;;;;;2.97;2.47;;;;;;;37.72;17.18;97380.13;5050472;27;20169;-75
2022/08/24 11:25:22;;;;;;;3.30;3.05;;;;;;;37.81;17.41;97374.88;5050522;27;20098;-75
2022/08/24 11:27:50;;;;;;;2.92;2.47;;;;;;;37.61;16.76;97387.72;5016546;27;20648;-75
2022/08/24 11:30:19;;;;;;;3.05;2.85;;;;;;;37.78;16.89;97383.88;5050538;27;20350;-75
2022/08/24 11:32:46;;;;;;;2.78;2.58;;;;;;;38.29;17.48;97380.81;5033268;27;20207;-75
2022/08/24 11:35:24;;;;;;;2.58;2.38;;;;;;;37.73;17.22;97378.19;5016268;27;20267;-75
2022/08/24 11:37:55;;;;;;;2.80;2.60;;;;;;;36.85;18.03;97378.25;5033335;27;20232;-75
2022/08/24 11:40:26;;;;;;;3.00;2.80;;;;;;;37.03;17.44;97377.91;5015616;27;20203;-75
2022/08/24 11:43:06;;;;;;;4.32;2.70;;;;;;;36.82;18.33;97386.47;5016516;27;20219;-74
2022/08/24 11:45:37;;;;;;;2.70;2.25;;;;;;;36.22;19.10;97376.16;5030964;27;20604;-76
2022/08/24 11:48:12;;;;;;;2.50;2.30;;;;;;;35.54;19.42;97377.81;4976147;28;20271;-75
2022/08/24 11:50:58;;;;;;;2.63;2.45;;;;;;;35.22;20.03;97378.94;4992394;28;20365;-75
2022/08/24 11:53:57;;;;;;;2.65;2.00;;;;;;;35.47;19.62;97372.47;5019464;27;20199;-75
2022/08/24 11:56:40;;;;;;;2.35;2.15;;;;;;;35.92;19.76;97375.03;5016149;27;20234;-74
2022/08/24 11:59:31;;;;;;;2.50;2.30;;;;;;;35.78;19.21;97377.91;5049637;27;20645;-75